G.l. 501 — WDG7669 — position and weather

sailwx.info

Track history (hours):
 
Tides and Currents Weather Stations Pressure Air Temp Water Temp Dewpoint Dewpoint Depression Visibility Wind Speed Wind Dir Waves Ship Positions

G.l. 501

Owner: Great Lakes Dredge & Dock Company, LLC, Oak Brook, IL. More information available from US FCC via Universal Licensing System and Coast Guard Vessel Documentation Center.

Last reported at 2018-Feb-22 13:00 UTC. Time now 2018-Feb-22 13:12 UTC.
Position N 39°47' W 075°27'.

Length 90 m.

Type: Dredging. MMSI: 367569630.

Date/timePositionNaut miles runAvg speedWind from/ knotsBaromVisibWave heightAir tempDewpointWater temp
2018-Feb-22 13:00N 39°47' W 075°27'0 0.1
2018-Feb-22 12:30N 39°47' W 075°27'0 0.1
2018-Feb-22 12:00N 39°47' W 075°27'0 0.2
2018-Feb-22 11:30N 39°47' W 075°27'0 0.5
2018-Feb-22 11:00N 39°47' W 075°27'0 0.4
2018-Feb-22 10:30N 39°48' W 075°27'1 1.7
2018-Feb-22 09:58N 39°48' W 075°26'1 2.5
2018-Feb-22 09:25N 39°48' W 075°24'1 2.1
2018-Feb-22 08:59N 39°49' W 075°23'1 2.7
2018-Feb-22 08:30N 39°50' W 075°22'0 0.3
2018-Feb-22 07:59N 39°50' W 075°22'0 1.0
2018-Feb-22 07:30N 39°50' W 075°22'3 5.5
2018-Feb-22 07:00N 39°48' W 075°25'3 6.5
2018-Feb-22 06:30N 39°46' W 075°29'4 8.0
2018-Feb-22 06:00N 39°42' W 075°31'5 8.9
2018-Feb-22 05:30N 39°38' W 075°34'4 8.0
2018-Feb-22 05:00N 39°34' W 075°33'4 8.1
2018-Feb-22 04:30N 39°30' W 075°33'4 7.6
2018-Feb-22 04:00N 39°27' W 075°33'4 8.1
2018-Feb-22 03:30N 39°24' W 075°29'4 7.7
2018-Feb-22 03:00N 39°21' W 075°26'4 7.2
2018-Feb-22 02:30N 39°18' W 075°23'3 7.0
2018-Feb-22 02:00N 39°15' W 075°20'2 0.4
2018-Feb-21 20:03N 39°17' W 075°22'0 4.8
2018-Feb-21 19:58N 39°17' W 075°22'2 4.7
2018-Feb-21 19:30N 39°19' W 075°24'2 4.2
2018-Feb-21 18:59N 39°21' W 075°26'2 3.8
2018-Feb-21 18:30N 39°22' W 075°27'2 3.8
2018-Feb-21 18:00N 39°23' W 075°29'2 3.9
2018-Feb-21 17:30N 39°25' W 075°31'2 4.2
2018-Feb-21 17:00N 39°26' W 075°33'2 4.7
2018-Feb-21 16:30N 39°29' W 075°34'3 5.1
2018-Feb-21 16:00N 39°31' W 075°33'3 5.7
2018-Feb-21 15:30N 39°34' W 075°33'3 6.9
2018-Feb-21 15:00N 39°37' W 075°35'4 7.2
2018-Feb-21 14:30N 39°40' W 075°32'4 7.5
2018-Feb-21 14:00N 39°44' W 075°30'3 7.0
2018-Feb-21 13:30N 39°47' W 075°28'3 6.5
2018-Feb-21 12:59N 39°48' W 075°24'2 3.2
2018-Feb-21 12:26N 39°50' W 075°23'0 0.0
2018-Feb-21 11:59N 39°50' W 075°23'0 0.0
2018-Feb-21 11:29N 39°50' W 075°23'0 0.0
2018-Feb-21 10:59N 39°50' W 075°23'0 0.0
2018-Feb-21 10:29N 39°50' W 075°23'0 0.0
2018-Feb-21 09:59N 39°50' W 075°23'0 0.0
2018-Feb-21 09:29N 39°50' W 075°23'0 0.0
2018-Feb-21 08:59N 39°50' W 075°23'0 0.0
2018-Feb-21 08:29N 39°50' W 075°23'0 0.0
2018-Feb-21 07:59N 39°50' W 075°23'0 0.0
2018-Feb-21 07:29N 39°50' W 075°23'0 0.0
2018-Feb-21 06:59N 39°50' W 075°23'0 0.0
2018-Feb-21 06:29N 39°50' W 075°23'0 0.0
2018-Feb-21 05:59N 39°50' W 075°23'0 0.0
2018-Feb-21 05:26N 39°50' W 075°23'0 0.0
2018-Feb-21 04:59N 39°50' W 075°23'0 0.0
2018-Feb-21 04:29N 39°50' W 075°23'0 0.0
2018-Feb-21 03:59N 39°50' W 075°23'0 0.0
2018-Feb-21 03:29N 39°50' W 075°23'0 0.0
2018-Feb-21 02:59N 39°50' W 075°23'0 0.0
2018-Feb-21 02:29N 39°50' W 075°23'0 0.0
2018-Feb-21 01:59N 39°50' W 075°23'0 0.0
2018-Feb-21 01:29N 39°50' W 075°23'0 0.0
2018-Feb-21 00:59N 39°50' W 075°23'0 0.0
2018-Feb-21 00:29N 39°50' W 075°23'0 0.0
2018-Feb-20 23:59N 39°50' W 075°23'0 0.0
2018-Feb-20 23:26N 39°50' W 075°23'0 0.0
2018-Feb-20 22:59N 39°50' W 075°23'0 0.0
2018-Feb-20 22:29N 39°50' W 075°23'0 0.0
2018-Feb-20 21:59N 39°50' W 075°23'0 0.0
2018-Feb-20 21:29N 39°50' W 075°23'0 0.0
2018-Feb-20 20:59N 39°50' W 075°23'0 0.0
2018-Feb-20 20:29N 39°50' W 075°23'0 0.1
2018-Feb-20 19:59N 39°50' W 075°23'0 0.0
2018-Feb-20 19:29N 39°50' W 075°23'0 0.0
2018-Feb-20 18:59N 39°50' W 075°23'0 0.0
2018-Feb-20 18:29N 39°50' W 075°23'0 0.0
2018-Feb-20 17:59N 39°50' W 075°23'0 0.0
2018-Feb-20 17:29N 39°50' W 075°23'0 0.0
2018-Feb-20 16:59N 39°50' W 075°23'0 0.0
2018-Feb-20 16:23N 39°50' W 075°23'0 0.0
2018-Feb-20 15:59N 39°50' W 075°23'0 0.0
2018-Feb-20 15:29N 39°50' W 075°23'0 0.0
2018-Feb-20 14:59N 39°50' W 075°23'0 0.0
2018-Feb-20 14:29N 39°50' W 075°23'0 0.0
2018-Feb-20 13:59N 39°50' W 075°23'0 0.0
2018-Feb-20 13:29N 39°50' W 075°23'0 0.0
2018-Feb-20 12:59N 39°50' W 075°23'0 0.0
2018-Feb-20 12:26N 39°50' W 075°23'0 0.0
2018-Feb-20 11:59N 39°50' W 075°23'0 0.0
2018-Feb-20 11:29N 39°50' W 075°23'0 0.0
2018-Feb-20 11:00N 39°50' W 075°23'2 3.2
2018-Feb-20 10:29N 39°50' W 075°21'0 0.0
2018-Feb-20 09:56N 39°50' W 075°21'0 0.0
2018-Feb-20 09:29N 39°50' W 075°21'0 0.0
2018-Feb-20 08:59N 39°50' W 075°21'0 0.0
2018-Feb-20 08:29N 39°50' W 075°21'0 0.0
2018-Feb-20 07:59N 39°50' W 075°21'0 0.0
2018-Feb-20 07:29N 39°50' W 075°21'0 0.0
2018-Feb-20 06:59N 39°50' W 075°21'0 0.0
2018-Feb-20 06:26N 39°50' W 075°21'0 0.0
2018-Feb-20 05:59N 39°50' W 075°21'0 0.0
2018-Feb-20 05:29N 39°50' W 075°21'0 0.0
2018-Feb-20 04:59N 39°50' W 075°21'0 0.0
2018-Feb-20 04:29N 39°50' W 075°21'0 0.0
2018-Feb-20 03:59N 39°50' W 075°21'0 0.0
2018-Feb-20 03:29N 39°50' W 075°21'0 0.0
2018-Feb-20 02:59N 39°50' W 075°21'0 0.0
2018-Feb-20 02:29N 39°50' W 075°21'0 0.0
2018-Feb-20 01:59N 39°50' W 075°21'0 0.0
2018-Feb-20 01:26N 39°50' W 075°21'0 0.0
2018-Feb-20 00:59N 39°50' W 075°21'0 0.0
2018-Feb-20 00:29N 39°50' W 075°21'0 0.0
2018-Feb-19 23:59N 39°50' W 075°21'0 0.0
2018-Feb-19 23:29N 39°50' W 075°21'0 0.0
2018-Feb-19 22:53N 39°50' W 075°21'0 0.0
2018-Feb-19 22:23N 39°50' W 075°21'0 0.0
2018-Feb-19 21:59N 39°50' W 075°21'0 0.5
2018-Feb-19 21:29N 39°50' W 075°21'2 4.8
2018-Feb-19 21:00N 39°49' W 075°24'3 5.2
2018-Feb-19 20:30N 39°48' W 075°27'1 1.1
2018-Feb-19 19:58N 39°47' W 075°27'0 0.1
2018-Feb-19 19:28N 39°47' W 075°27'0 0.0
2018-Feb-19 18:49N 39°47' W 075°27'0 0.0
2018-Feb-19 18:28N 39°47' W 075°27'0 0.0
2018-Feb-19 17:58N 39°47' W 075°27'0 0.0
2018-Feb-19 17:22N 39°47' W 075°27'0 0.1
2018-Feb-19 16:58N 39°47' W 075°27'1 1.7
2018-Feb-19 16:29N 39°48' W 075°26'2 3.3
2018-Feb-19 16:00N 39°49' W 075°25'2 3.0
2018-Feb-19 15:26N 39°50' W 075°23'0 0.0
2018-Feb-19 14:59N 39°50' W 075°23'0 0.0
2018-Feb-19 14:29N 39°50' W 075°23'0 0.3
2018-Feb-19 13:59N 39°50' W 075°23'0 0.1
2018-Feb-19 13:29N 39°50' W 075°23'1 2.7
2018-Feb-19 13:00N 39°49' W 075°24'3 5.1
2018-Feb-19 12:27N 39°47' W 075°27'3 6.5
2018-Feb-19 12:00N 39°45' W 075°29'3 6.5
2018-Feb-19 11:31N 39°42' W 075°31'3 6.4
2018-Feb-19 11:00N 39°39' W 075°33'3 5.6
2018-Feb-19 10:31N 39°36' W 075°34'3 6.4
2018-Feb-19 10:01N 39°33' W 075°32'3 6.4
2018-Feb-19 09:30N 39°30' W 075°33'3 6.3
2018-Feb-19 09:01N 39°27' W 075°33'3 6.9
2018-Feb-19 08:31N 39°24' W 075°30'4 7.3
2018-Feb-19 08:01N 39°22' W 075°27'4 7.5
2018-Feb-19 07:30N 39°19' W 075°24'4 7.9
2018-Feb-19 07:01N 39°16' W 075°20'4 8.1
2018-Feb-19 06:30N 39°13' W 075°17'4 0.6
2018-Feb-19 00:47N 39°16' W 075°20'2 6.5
2018-Feb-19 00:30N 39°17' W 075°22'4 7.4
2018-Feb-19 00:00N 39°20' W 075°25'4 8.5
2018-Feb-18 23:30N 39°23' W 075°28'4 8.2
2018-Feb-18 23:00N 39°26' W 075°32'4 7.4
2018-Feb-18 22:30N 39°29' W 075°34'4 7.7
2018-Feb-18 22:00N 39°33' W 075°32'4 7.6
2018-Feb-18 21:30N 39°36' W 075°34'3 6.5
2018-Feb-18 21:01N 39°39' W 075°33'3 6.5
2018-Feb-18 20:31N 39°42' W 075°31'3 5.7
2018-Feb-18 19:59N 39°45' W 075°29'2 5.0
2018-Feb-18 19:31N 39°47' W 075°28'2 4.6
2018-Feb-18 19:00N 39°48' W 075°25'2 4.0
2018-Feb-18 18:28N 39°50' W 075°23'0 0.0
2018-Feb-18 17:58N 39°50' W 075°23'0 0.0
2018-Feb-18 17:28N 39°50' W 075°23'0 0.0
2018-Feb-18 16:52N 39°49' W 075°23'0 0.0
2018-Feb-18 16:28N 39°49' W 075°23'0 0.0
2018-Feb-18 15:58N 39°50' W 075°23'0 0.3
2018-Feb-18 15:28N 39°50' W 075°23'0 0.1
2018-Feb-18 14:58N 39°50' W 075°23'0 0.3
2018-Feb-18 14:30N 39°49' W 075°23'0 0.1
2018-Feb-18 13:59N 39°49' W 075°23'0 0.0
2018-Feb-18 13:29N 39°49' W 075°23'0 0.0
2018-Feb-18 12:59N 39°49' W 075°23'0 0.0
2018-Feb-18 12:29N 39°49' W 075°23'0 0.0
2018-Feb-18 11:59N 39°49' W 075°23'0 0.0
2018-Feb-18 11:29N 39°49' W 075°23'0 0.0
2018-Feb-18 10:59N 39°49' W 075°23'0 0.0
2018-Feb-18 10:29N 39°49' W 075°23'0 0.0
2018-Feb-18 09:59N 39°49' W 075°23'0 0.0
2018-Feb-18 09:26N 39°49' W 075°23'0 0.0
2018-Feb-18 08:59N 39°49' W 075°23'0 0.0
2018-Feb-18 08:29N 39°49' W 075°23'0 0.0
2018-Feb-18 07:59N 39°49' W 075°23'0 0.0
2018-Feb-18 07:29N 39°49' W 075°23'0 0.0
2018-Feb-18 06:59N 39°49' W 075°23'0 0.0
2018-Feb-18 06:26N 39°49' W 075°23'0 0.0
2018-Feb-18 05:59N 39°49' W 075°23'0 0.0
2018-Feb-18 05:29N 39°49' W 075°23'0 0.0
2018-Feb-18 04:59N 39°49' W 075°23'0 0.0
2018-Feb-18 04:29N 39°49' W 075°23'0 0.0
2018-Feb-18 03:59N 39°49' W 075°23'0 0.0
2018-Feb-18 03:29N 39°49' W 075°23'0 0.0
2018-Feb-18 02:59N 39°49' W 075°23'0 0.0
2018-Feb-18 02:29N 39°49' W 075°23'0 0.0
2018-Feb-18 01:59N 39°49' W 075°23'0 0.8
2018-Feb-18 01:30N 39°50' W 075°22'0 0.7
2018-Feb-18 00:55N 39°50' W 075°22'0 0.0
2018-Feb-18 00:28N 39°50' W 075°22'0 0.0
2018-Feb-17 23:58N 39°50' W 075°22'0 0.0
2018-Feb-17 22:55N 39°50' W 075°22'0 0.0
2018-Feb-17 22:29N 39°50' W 075°22'0 0.0
2018-Feb-17 21:58N 39°50' W 075°22'0 0.0
2018-Feb-17 21:28N 39°50' W 075°22'0 0.0
2018-Feb-17 20:58N 39°50' W 075°22'0 0.0
2018-Feb-17 20:28N 39°50' W 075°22'0 0.4
2018-Feb-17 19:58N 39°50' W 075°22'2 4.5
2018-Feb-17 19:30N 39°49' W 075°24'5 9.0
2018-Feb-17 19:00N 39°46' W 075°29'611.9
2018-Feb-17 18:30N 39°40' W 075°32'510.4
2018-Feb-17 18:00N 39°35' W 075°34'611.7
2018-Feb-17 17:30N 39°30' W 075°34'611.6
2018-Feb-17 17:01N 39°24' W 075°30'611.5
2018-Feb-17 16:30N 39°20' W 075°25'612.8
2018-Feb-17 16:00N 39°15' W 075°20'14 2.2
2018-Feb-17 09:25N 39°26' W 075°32'4 8.6
2018-Feb-17 09:00N 39°29' W 075°34'4 8.8
2018-Feb-17 08:30N 39°34' W 075°33'4 8.2
2018-Feb-17 07:59N 39°38' W 075°35'4 7.7
2018-Feb-17 07:25N 39°41' W 075°31'8 0.7
2018-Feb-16 18:52N 39°48' W 075°25'0 0.0
2018-Feb-16 18:28N 39°48' W 075°25'0 0.0
2018-Feb-16 17:58N 39°48' W 075°25'0 0.0
2018-Feb-16 17:28N 39°48' W 075°25'0 0.0
2018-Feb-16 16:58N 39°48' W 075°25'0 0.0
2018-Feb-16 16:25N 39°48' W 075°25'0 0.0
2018-Feb-16 15:58N 39°48' W 075°25'0 0.0
2018-Feb-16 15:25N 39°48' W 075°25'0 0.0
2018-Feb-16 14:58N 39°48' W 075°25'0 0.0
2018-Feb-16 14:28N 39°48' W 075°25'0 0.1
2018-Feb-16 13:58N 39°48' W 075°25'0 0.0
2018-Feb-16 13:28N 39°48' W 075°25'0 0.0
2018-Feb-16 12:58N 39°48' W 075°25'0 0.0
2018-Feb-16 12:28N 39°48' W 075°25'0 0.0
2018-Feb-16 11:55N 39°48' W 075°25'0 0.0
2018-Feb-16 11:28N 39°48' W 075°25'0 0.0
2018-Feb-16 10:58N 39°48' W 075°25'0 0.0
2018-Feb-16 10:28N 39°48' W 075°25'0 0.0
2018-Feb-16 09:52N 39°48' W 075°25'0 0.0
2018-Feb-16 09:28N 39°48' W 075°25'0 0.0
2018-Feb-16 08:58N 39°48' W 075°25'0 0.0
2018-Feb-16 08:28N 39°48' W 075°25'0 0.0
2018-Feb-16 07:55N 39°48' W 075°25'0 0.0
2018-Feb-16 07:28N 39°48' W 075°25'0 0.0
2018-Feb-16 06:58N 39°48' W 075°25'0 0.0
2018-Feb-16 06:25N 39°48' W 075°25'0 0.0
2018-Feb-16 05:58N 39°48' W 075°25'0 0.0
2018-Feb-16 05:28N 39°48' W 075°25'0 0.0
2018-Feb-16 04:52N 39°48' W 075°25'0 0.0
2018-Feb-16 04:28N 39°48' W 075°25'0 0.0
2018-Feb-16 03:58N 39°48' W 075°25'0 0.0
2018-Feb-16 03:25N 39°48' W 075°25'0 0.0
2018-Feb-16 02:55N 39°48' W 075°25'0 0.0
2018-Feb-16 02:22N 39°48' W 075°25'0 0.0
2018-Feb-16 01:58N 39°48' W 075°25'0 0.0
2018-Feb-16 01:28N 39°48' W 075°25'0 0.0
2018-Feb-15 23:04N 39°48' W 075°25'0 0.1
2018-Feb-15 22:58N 39°48' W 075°25'1 2.1
2018-Feb-15 22:30N 39°48' W 075°26'0 1.0
2018-Feb-15 22:00N 39°47' W 075°27'0 0.4
2018-Feb-15 21:29N 39°47' W 075°27'0 0.2
2018-Feb-15 20:59N 39°47' W 075°27'0 0.0
2018-Feb-15 20:29N 39°47' W 075°27'0 0.4
2018-Feb-15 19:59N 39°47' W 075°27'0 0.0
2018-Feb-15 19:29N 39°47' W 075°27'0 0.1
2018-Feb-15 18:56N 39°47' W 075°27'0 0.1
2018-Feb-15 18:29N 39°47' W 075°27'0 0.5
2018-Feb-15 17:59N 39°47' W 075°27'0 0.0
2018-Feb-15 17:29N 39°47' W 075°27'0 0.1
2018-Feb-15 16:59N 39°47' W 075°27'0 0.0
2018-Feb-15 16:05N 39°47' W 075°27'0 0.0
2018-Feb-15 15:14N 39°47' W 075°27'0 0.0
2018-Feb-15 14:59N 39°47' W 075°27'1 2.1
2018-Feb-15 14:20N 39°48' W 075°25'1 3.3
2018-Feb-15 14:00N 39°49' W 075°24'1 2.6
2018-Feb-15 13:28N 39°50' W 075°23'0 0.0
2018-Feb-15 12:58N 39°50' W 075°23'0 0.0
2018-Feb-15 12:28N 39°50' W 075°23'0 0.0
2018-Feb-15 11:58N 39°50' W 075°23'0 0.0
2018-Feb-15 11:28N 39°50' W 075°23'0 0.0
2018-Feb-15 10:58N 39°50' W 075°23'0 0.0
2018-Feb-15 10:28N 39°50' W 075°23'0 0.0
2018-Feb-15 09:58N 39°50' W 075°23'0 0.0
2018-Feb-15 09:28N 39°50' W 075°23'0 0.0
2018-Feb-15 08:58N 39°50' W 075°23'0 0.0
2018-Feb-15 08:28N 39°50' W 075°23'0 0.0
2018-Feb-15 07:58N 39°50' W 075°23'0 0.0
2018-Feb-15 07:28N 39°50' W 075°23'0 0.0
2018-Feb-15 06:58N 39°50' W 075°23'0 0.0
2018-Feb-15 06:25N 39°50' W 075°23'0 0.0
2018-Feb-15 05:58N 39°50' W 075°23'0 0.0
2018-Feb-15 05:28N 39°50' W 075°23'0 0.0
2018-Feb-15 04:58N 39°50' W 075°23'0 0.0
2018-Feb-15 04:28N 39°50' W 075°23'0 0.0
2018-Feb-15 03:58N 39°50' W 075°23'0 0.0
2018-Feb-15 03:28N 39°50' W 075°23'0 0.0
2018-Feb-15 02:58N 39°50' W 075°23'0 0.0
2018-Feb-15 02:28N 39°50' W 075°23'0 0.0
2018-Feb-15 01:58N 39°50' W 075°23'0 0.0
2018-Feb-15 01:28N 39°50' W 075°23'0 0.0
2018-Feb-15 00:58N 39°50' W 075°23'0 0.0
2018-Feb-15 00:28N 39°50' W 075°23'0 0.0
2018-Feb-14 23:55N 39°50' W 075°23'0 0.0
2018-Feb-14 23:25N 39°50' W 075°23'0 0.0
2018-Feb-14 22:58N 39°50' W 075°23'0 0.0
2018-Feb-14 22:28N 39°50' W 075°23'0 0.0
2018-Feb-14 21:58N 39°50' W 075°23'0 0.0
2018-Feb-14 21:28N 39°50' W 075°23'0 0.0
2018-Feb-14 20:58N 39°50' W 075°23'0 0.0
2018-Feb-14 20:28N 39°50' W 075°23'0 0.0
2018-Feb-14 19:58N 39°50' W 075°23'0 0.0
2018-Feb-14 19:28N 39°50' W 075°23'0 0.0
2018-Feb-14 18:58N 39°50' W 075°23'0 0.0
2018-Feb-14 18:28N 39°50' W 075°23'0 0.0
2018-Feb-14 17:58N 39°50' W 075°23'0 0.0
2018-Feb-14 17:25N 39°50' W 075°23'0 0.0
2018-Feb-14 16:58N 39°50' W 075°23'0 0.0
2018-Feb-14 16:28N 39°50' W 075°23'0 0.0
2018-Feb-14 15:58N 39°50' W 075°23'0 0.0
2018-Feb-14 15:28N 39°50' W 075°23'0 0.0
2018-Feb-14 14:58N 39°50' W 075°23'0 0.0
2018-Feb-14 14:28N 39°50' W 075°23'0 0.0
2018-Feb-14 13:58N 39°50' W 075°23'0 0.0
2018-Feb-14 13:28N 39°50' W 075°23'0 0.0
2018-Feb-14 12:58N 39°50' W 075°23'1 1.6
2018-Feb-14 12:30N 39°49' W 075°23'0 0.2
2018-Feb-14 11:59N 39°49' W 075°24'0 0.5
2018-Feb-14 11:26N 39°49' W 075°23'1 2.0
2018-Feb-14 11:00N 39°49' W 075°24'2 3.9
2018-Feb-14 10:31N 39°48' W 075°26'2 4.8
2018-Feb-14 10:00N 39°46' W 075°28'3 5.5
2018-Feb-14 09:30N 39°43' W 075°30'3 5.4
2018-Feb-14 09:00N 39°41' W 075°31'3 6.6
2018-Feb-14 08:30N 39°38' W 075°34'3 6.8
2018-Feb-14 08:00N 39°35' W 075°33'4 7.1
2018-Feb-14 07:30N 39°31' W 075°33'4 7.2
2018-Feb-14 07:00N 39°28' W 075°33'4 7.5
2018-Feb-14 06:30N 39°25' W 075°31'3 6.5
2018-Feb-14 06:00N 39°22' W 075°28'4 8.0
2018-Feb-14 05:31N 39°19' W 075°24'4 8.0
2018-Feb-14 05:01N 39°16' W 075°21'0 0.0
2018-Feb-13 22:17N 39°16' W 075°21'2 6.0
2018-Feb-13 21:59N 39°18' W 075°22'3 6.7
2018-Feb-13 21:29N 39°20' W 075°25'4 7.9
2018-Feb-13 21:00N 39°23' W 075°29'4 8.7
2018-Feb-13 20:30N 39°26' W 075°32'4 7.5
2018-Feb-13 20:00N 39°30' W 075°34'4 8.8
2018-Feb-13 19:30N 39°34' W 075°33'4 8.2
2018-Feb-13 19:01N 39°38' W 075°34'4 8.3
2018-Feb-13 18:30N 39°41' W 075°31'4 7.8
2018-Feb-13 18:00N 39°45' W 075°29'3 7.1
2018-Feb-13 17:30N 39°48' W 075°26'3 5.2
2018-Feb-13 17:00N 39°49' W 075°23'0 0.7
2018-Feb-13 16:30N 39°49' W 075°23'0 0.5
2018-Feb-13 15:55N 39°50' W 075°23'0 0.0
2018-Feb-13 15:25N 39°50' W 075°23'0 0.0
2018-Feb-13 14:58N 39°50' W 075°23'0 0.0
2018-Feb-13 14:28N 39°50' W 075°23'0 0.0
2018-Feb-13 13:58N 39°50' W 075°23'0 0.0
2018-Feb-13 13:28N 39°50' W 075°23'0 0.0
2018-Feb-13 12:58N 39°50' W 075°23'0 0.0
2018-Feb-13 12:25N 39°50' W 075°23'0 0.0
2018-Feb-13 11:58N 39°50' W 075°23'0 0.0
2018-Feb-13 11:28N 39°50' W 075°23'0 0.0
2018-Feb-13 10:58N 39°50' W 075°23'0 0.0
2018-Feb-13 10:28N 39°50' W 075°23'0 0.0
2018-Feb-13 09:58N 39°50' W 075°23'0 0.0
2018-Feb-13 09:28N 39°49' W 075°23'0 0.0
2018-Feb-13 08:58N 39°50' W 075°23'0 0.0
2018-Feb-13 08:28N 39°50' W 075°23'0 0.0
2018-Feb-13 07:58N 39°49' W 075°23'0 0.0
2018-Feb-13 07:28N 39°49' W 075°23'0 0.0
2018-Feb-13 06:58N 39°49' W 075°23'0 0.0
2018-Feb-13 06:28N 39°49' W 075°23'0 0.0
2018-Feb-13 05:58N 39°49' W 075°23'0 0.0
2018-Feb-13 05:25N 39°49' W 075°23'0 0.1
2018-Feb-13 04:55N 39°49' W 075°23'0 0.1
2018-Feb-13 04:28N 39°49' W 075°23'0 0.1
2018-Feb-13 03:58N 39°49' W 075°23'0 0.0
2018-Feb-13 03:28N 39°49' W 075°23'0 0.2
2018-Feb-13 02:58N 39°49' W 075°23'0 0.0
2018-Feb-13 02:28N 39°49' W 075°23'0 0.1
2018-Feb-13 01:58N 39°49' W 075°23'1 2.8
2018-Feb-13 01:30N 39°49' W 075°24'5 9.7
2018-Feb-13 01:00N 39°46' W 075°29'612.0
2018-Feb-13 00:30N 39°40' W 075°32'510.5
2018-Feb-13 00:00N 39°35' W 075°33'611.5
2018-Feb-12 23:30N 39°29' W 075°34'5 9.6
2018-Feb-12 23:00N 39°25' W 075°31'511.0
2018-Feb-12 22:30N 39°21' W 075°26'511.0
2018-Feb-12 22:00N 39°17' W 075°21'3 0.7
2018-Feb-12 17:35N 39°14' W 075°19'2 9.0
2018-Feb-12 17:18N 39°16' W 075°21'3 9.1
2018-Feb-12 17:00N 39°18' W 075°23'4 8.8
2018-Feb-12 16:30N 39°22' W 075°27'4 8.4
2018-Feb-12 16:00N 39°25' W 075°31'4 7.6
2018-Feb-12 15:30N 39°28' W 075°34'3 6.8
2018-Feb-12 15:00N 39°31' W 075°33'3 6.1
2018-Feb-12 14:30N 39°34' W 075°33'3 5.8
2018-Feb-12 14:00N 39°37' W 075°35'2 4.8
2018-Feb-12 13:30N 39°39' W 075°33'2 4.7
2018-Feb-12 13:00N 39°41' W 075°31'  
Track history (hours):
 
Tides and Currents Weather Stations Pressure Air Temp Water Temp Dewpoint Dewpoint Depression Visibility Wind Speed Wind Dir Waves Ship Positions

G.l. 501

Owner: Great Lakes Dredge & Dock Company, LLC, Oak Brook, IL. More information available from US FCC via Universal Licensing System and Coast Guard Vessel Documentation Center.

Last reported at 2018-Feb-22 13:00 UTC. Time now 2018-Feb-22 13:12 UTC.
Position N 39°47' W 075°27'.

Length 90 m.

Type: Dredging. MMSI: 367569630.

Date/timePositionNaut miles runAvg speedWind from/ knotsBaromVisibWave heightAir tempDewpointWater temp
2018-Feb-22 13:00N 39°47' W 075°27'0 0.1
2018-Feb-22 12:30N 39°47' W 075°27'0 0.1
2018-Feb-22 12:00N 39°47' W 075°27'0 0.2
2018-Feb-22 11:30N 39°47' W 075°27'0 0.5
2018-Feb-22 11:00N 39°47' W 075°27'0 0.4
2018-Feb-22 10:30N 39°48' W 075°27'1 1.7
2018-Feb-22 09:58N 39°48' W 075°26'1 2.5
2018-Feb-22 09:25N 39°48' W 075°24'1 2.1
2018-Feb-22 08:59N 39°49' W 075°23'1 2.7
2018-Feb-22 08:30N 39°50' W 075°22'0 0.3
2018-Feb-22 07:59N 39°50' W 075°22'0 1.0
2018-Feb-22 07:30N 39°50' W 075°22'3 5.5
2018-Feb-22 07:00N 39°48' W 075°25'3 6.5
2018-Feb-22 06:30N 39°46' W 075°29'4 8.0
2018-Feb-22 06:00N 39°42' W 075°31'5 8.9
2018-Feb-22 05:30N 39°38' W 075°34'4 8.0
2018-Feb-22 05:00N 39°34' W 075°33'4 8.1
2018-Feb-22 04:30N 39°30' W 075°33'4 7.6
2018-Feb-22 04:00N 39°27' W 075°33'4 8.1
2018-Feb-22 03:30N 39°24' W 075°29'4 7.7
2018-Feb-22 03:00N 39°21' W 075°26'4 7.2
2018-Feb-22 02:30N 39°18' W 075°23'3 7.0
2018-Feb-22 02:00N 39°15' W 075°20'2 0.4
2018-Feb-21 20:03N 39°17' W 075°22'0 4.8
2018-Feb-21 19:58N 39°17' W 075°22'2 4.7
2018-Feb-21 19:30N 39°19' W 075°24'2 4.2
2018-Feb-21 18:59N 39°21' W 075°26'2 3.8
2018-Feb-21 18:30N 39°22' W 075°27'2 3.8
2018-Feb-21 18:00N 39°23' W 075°29'2 3.9
2018-Feb-21 17:30N 39°25' W 075°31'2 4.2
2018-Feb-21 17:00N 39°26' W 075°33'2 4.7
2018-Feb-21 16:30N 39°29' W 075°34'3 5.1
2018-Feb-21 16:00N 39°31' W 075°33'3 5.7
2018-Feb-21 15:30N 39°34' W 075°33'3 6.9
2018-Feb-21 15:00N 39°37' W 075°35'4 7.2
2018-Feb-21 14:30N 39°40' W 075°32'4 7.5
2018-Feb-21 14:00N 39°44' W 075°30'3 7.0
2018-Feb-21 13:30N 39°47' W 075°28'3 6.5
2018-Feb-21 12:59N 39°48' W 075°24'2 3.2
2018-Feb-21 12:26N 39°50' W 075°23'0 0.0
2018-Feb-21 11:59N 39°50' W 075°23'0 0.0
2018-Feb-21 11:29N 39°50' W 075°23'0 0.0
2018-Feb-21 10:59N 39°50' W 075°23'0 0.0
2018-Feb-21 10:29N 39°50' W 075°23'0 0.0
2018-Feb-21 09:59N 39°50' W 075°23'0 0.0
2018-Feb-21 09:29N 39°50' W 075°23'0 0.0
2018-Feb-21 08:59N 39°50' W 075°23'0 0.0
2018-Feb-21 08:29N 39°50' W 075°23'0 0.0
2018-Feb-21 07:59N 39°50' W 075°23'0 0.0
2018-Feb-21 07:29N 39°50' W 075°23'0 0.0
2018-Feb-21 06:59N 39°50' W 075°23'0 0.0
2018-Feb-21 06:29N 39°50' W 075°23'0 0.0
2018-Feb-21 05:59N 39°50' W 075°23'0 0.0
2018-Feb-21 05:26N 39°50' W 075°23'0 0.0
2018-Feb-21 04:59N 39°50' W 075°23'0 0.0
2018-Feb-21 04:29N 39°50' W 075°23'0 0.0
2018-Feb-21 03:59N 39°50' W 075°23'0 0.0
2018-Feb-21 03:29N 39°50' W 075°23'0 0.0
2018-Feb-21 02:59N 39°50' W 075°23'0 0.0
2018-Feb-21 02:29N 39°50' W 075°23'0 0.0
2018-Feb-21 01:59N 39°50' W 075°23'0 0.0
2018-Feb-21 01:29N 39°50' W 075°23'0 0.0
2018-Feb-21 00:59N 39°50' W 075°23'0 0.0
2018-Feb-21 00:29N 39°50' W 075°23'0 0.0
2018-Feb-20 23:59N 39°50' W 075°23'0 0.0
2018-Feb-20 23:26N 39°50' W 075°23'0 0.0
2018-Feb-20 22:59N 39°50' W 075°23'0 0.0
2018-Feb-20 22:29N 39°50' W 075°23'0 0.0
2018-Feb-20 21:59N 39°50' W 075°23'0 0.0
2018-Feb-20 21:29N 39°50' W 075°23'0 0.0
2018-Feb-20 20:59N 39°50' W 075°23'0 0.0
2018-Feb-20 20:29N 39°50' W 075°23'0 0.1
2018-Feb-20 19:59N 39°50' W 075°23'0 0.0
2018-Feb-20 19:29N 39°50' W 075°23'0 0.0
2018-Feb-20 18:59N 39°50' W 075°23'0 0.0
2018-Feb-20 18:29N 39°50' W 075°23'0 0.0
2018-Feb-20 17:59N 39°50' W 075°23'0 0.0
2018-Feb-20 17:29N 39°50' W 075°23'0 0.0
2018-Feb-20 16:59N 39°50' W 075°23'0 0.0
2018-Feb-20 16:23N 39°50' W 075°23'0 0.0
2018-Feb-20 15:59N 39°50' W 075°23'0 0.0
2018-Feb-20 15:29N 39°50' W 075°23'0 0.0
2018-Feb-20 14:59N 39°50' W 075°23'0 0.0
2018-Feb-20 14:29N 39°50' W 075°23'0 0.0
2018-Feb-20 13:59N 39°50' W 075°23'0 0.0
2018-Feb-20 13:29N 39°50' W 075°23'0 0.0
2018-Feb-20 12:59N 39°50' W 075°23'0 0.0
2018-Feb-20 12:26N 39°50' W 075°23'0 0.0
2018-Feb-20 11:59N 39°50' W 075°23'0 0.0
2018-Feb-20 11:29N 39°50' W 075°23'0 0.0
2018-Feb-20 11:00N 39°50' W 075°23'2 3.2
2018-Feb-20 10:29N 39°50' W 075°21'0 0.0
2018-Feb-20 09:56N 39°50' W 075°21'0 0.0
2018-Feb-20 09:29N 39°50' W 075°21'0 0.0
2018-Feb-20 08:59N 39°50' W 075°21'0 0.0
2018-Feb-20 08:29N 39°50' W 075°21'0 0.0
2018-Feb-20 07:59N 39°50' W 075°21'0 0.0
2018-Feb-20 07:29N 39°50' W 075°21'0 0.0
2018-Feb-20 06:59N 39°50' W 075°21'0 0.0
2018-Feb-20 06:26N 39°50' W 075°21'0 0.0
2018-Feb-20 05:59N 39°50' W 075°21'0 0.0
2018-Feb-20 05:29N 39°50' W 075°21'0 0.0
2018-Feb-20 04:59N 39°50' W 075°21'0 0.0
2018-Feb-20 04:29N 39°50' W 075°21'0 0.0
2018-Feb-20 03:59N 39°50' W 075°21'0 0.0
2018-Feb-20 03:29N 39°50' W 075°21'0 0.0
2018-Feb-20 02:59N 39°50' W 075°21'0 0.0
2018-Feb-20 02:29N 39°50' W 075°21'0 0.0
2018-Feb-20 01:59N 39°50' W 075°21'0 0.0
2018-Feb-20 01:26N 39°50' W 075°21'0 0.0
2018-Feb-20 00:59N 39°50' W 075°21'0 0.0
2018-Feb-20 00:29N 39°50' W 075°21'0 0.0
2018-Feb-19 23:59N 39°50' W 075°21'0 0.0
2018-Feb-19 23:29N 39°50' W 075°21'0 0.0
2018-Feb-19 22:53N 39°50' W 075°21'0 0.0
2018-Feb-19 22:23N 39°50' W 075°21'0 0.0
2018-Feb-19 21:59N 39°50' W 075°21'0 0.5
2018-Feb-19 21:29N 39°50' W 075°21'2 4.8
2018-Feb-19 21:00N 39°49' W 075°24'3 5.2
2018-Feb-19 20:30N 39°48' W 075°27'1 1.1
2018-Feb-19 19:58N 39°47' W 075°27'0 0.1
2018-Feb-19 19:28N 39°47' W 075°27'0 0.0
2018-Feb-19 18:49N 39°47' W 075°27'0 0.0
2018-Feb-19 18:28N 39°47' W 075°27'0 0.0
2018-Feb-19 17:58N 39°47' W 075°27'0 0.0
2018-Feb-19 17:22N 39°47' W 075°27'0 0.1
2018-Feb-19 16:58N 39°47' W 075°27'1 1.7
2018-Feb-19 16:29N 39°48' W 075°26'2 3.3
2018-Feb-19 16:00N 39°49' W 075°25'2 3.0
2018-Feb-19 15:26N 39°50' W 075°23'0 0.0
2018-Feb-19 14:59N 39°50' W 075°23'0 0.0
2018-Feb-19 14:29N 39°50' W 075°23'0 0.3
2018-Feb-19 13:59N 39°50' W 075°23'0 0.1
2018-Feb-19 13:29N 39°50' W 075°23'1 2.7
2018-Feb-19 13:00N 39°49' W 075°24'3 5.1
2018-Feb-19 12:27N 39°47' W 075°27'3 6.5
2018-Feb-19 12:00N 39°45' W 075°29'3 6.5
2018-Feb-19 11:31N 39°42' W 075°31'3 6.4
2018-Feb-19 11:00N 39°39' W 075°33'3 5.6
2018-Feb-19 10:31N 39°36' W 075°34'3 6.4
2018-Feb-19 10:01N 39°33' W 075°32'3 6.4
2018-Feb-19 09:30N 39°30' W 075°33'3 6.3
2018-Feb-19 09:01N 39°27' W 075°33'3 6.9
2018-Feb-19 08:31N 39°24' W 075°30'4 7.3
2018-Feb-19 08:01N 39°22' W 075°27'4 7.5
2018-Feb-19 07:30N 39°19' W 075°24'4 7.9
2018-Feb-19 07:01N 39°16' W 075°20'4 8.1
2018-Feb-19 06:30N 39°13' W 075°17'4 0.6
2018-Feb-19 00:47N 39°16' W 075°20'2 6.5
2018-Feb-19 00:30N 39°17' W 075°22'4 7.4
2018-Feb-19 00:00N 39°20' W 075°25'4 8.5
2018-Feb-18 23:30N 39°23' W 075°28'4 8.2
2018-Feb-18 23:00N 39°26' W 075°32'4 7.4
2018-Feb-18 22:30N 39°29' W 075°34'4 7.7
2018-Feb-18 22:00N 39°33' W 075°32'4 7.6
2018-Feb-18 21:30N 39°36' W 075°34'3 6.5
2018-Feb-18 21:01N 39°39' W 075°33'3 6.5
2018-Feb-18 20:31N 39°42' W 075°31'3 5.7
2018-Feb-18 19:59N 39°45' W 075°29'2 5.0
2018-Feb-18 19:31N 39°47' W 075°28'2 4.6
2018-Feb-18 19:00N 39°48' W 075°25'2 4.0
2018-Feb-18 18:28N 39°50' W 075°23'0 0.0
2018-Feb-18 17:58N 39°50' W 075°23'0 0.0
2018-Feb-18 17:28N 39°50' W 075°23'0 0.0
2018-Feb-18 16:52N 39°49' W 075°23'0 0.0
2018-Feb-18 16:28N 39°49' W 075°23'0 0.0
2018-Feb-18 15:58N 39°50' W 075°23'0 0.3
2018-Feb-18 15:28N 39°50' W 075°23'0 0.1
2018-Feb-18 14:58N 39°50' W 075°23'0 0.3
2018-Feb-18 14:30N 39°49' W 075°23'0 0.1
2018-Feb-18 13:59N 39°49' W 075°23'0 0.0
2018-Feb-18 13:29N 39°49' W 075°23'0 0.0
2018-Feb-18 12:59N 39°49' W 075°23'0 0.0
2018-Feb-18 12:29N 39°49' W 075°23'0 0.0
2018-Feb-18 11:59N 39°49' W 075°23'0 0.0
2018-Feb-18 11:29N 39°49' W 075°23'0 0.0
2018-Feb-18 10:59N 39°49' W 075°23'0 0.0
2018-Feb-18 10:29N 39°49' W 075°23'0 0.0
2018-Feb-18 09:59N 39°49' W 075°23'0 0.0
2018-Feb-18 09:26N 39°49' W 075°23'0 0.0
2018-Feb-18 08:59N 39°49' W 075°23'0 0.0
2018-Feb-18 08:29N 39°49' W 075°23'0 0.0
2018-Feb-18 07:59N 39°49' W 075°23'0 0.0
2018-Feb-18 07:29N 39°49' W 075°23'0 0.0
2018-Feb-18 06:59N 39°49' W 075°23'0 0.0
2018-Feb-18 06:26N 39°49' W 075°23'0 0.0
2018-Feb-18 05:59N 39°49' W 075°23'0 0.0
2018-Feb-18 05:29N 39°49' W 075°23'0 0.0
2018-Feb-18 04:59N 39°49' W 075°23'0 0.0
2018-Feb-18 04:29N 39°49' W 075°23'0 0.0
2018-Feb-18 03:59N 39°49' W 075°23'0 0.0
2018-Feb-18 03:29N 39°49' W 075°23'0 0.0
2018-Feb-18 02:59N 39°49' W 075°23'0 0.0
2018-Feb-18 02:29N 39°49' W 075°23'0 0.0
2018-Feb-18 01:59N 39°49' W 075°23'0 0.8
2018-Feb-18 01:30N 39°50' W 075°22'0 0.7
2018-Feb-18 00:55N 39°50' W 075°22'0 0.0
2018-Feb-18 00:28N 39°50' W 075°22'0 0.0
2018-Feb-17 23:58N 39°50' W 075°22'0 0.0
2018-Feb-17 22:55N 39°50' W 075°22'0 0.0
2018-Feb-17 22:29N 39°50' W 075°22'0 0.0
2018-Feb-17 21:58N 39°50' W 075°22'0 0.0
2018-Feb-17 21:28N 39°50' W 075°22'0 0.0
2018-Feb-17 20:58N 39°50' W 075°22'0 0.0
2018-Feb-17 20:28N 39°50' W 075°22'0 0.4
2018-Feb-17 19:58N 39°50' W 075°22'2 4.5
2018-Feb-17 19:30N 39°49' W 075°24'5 9.0
2018-Feb-17 19:00N 39°46' W 075°29'611.9
2018-Feb-17 18:30N 39°40' W 075°32'510.4
2018-Feb-17 18:00N 39°35' W 075°34'611.7
2018-Feb-17 17:30N 39°30' W 075°34'611.6
2018-Feb-17 17:01N 39°24' W 075°30'611.5
2018-Feb-17 16:30N 39°20' W 075°25'612.8
2018-Feb-17 16:00N 39°15' W 075°20'14 2.2
2018-Feb-17 09:25N 39°26' W 075°32'4 8.6
2018-Feb-17 09:00N 39°29' W 075°34'4 8.8
2018-Feb-17 08:30N 39°34' W 075°33'4 8.2
2018-Feb-17 07:59N 39°38' W 075°35'4 7.7
2018-Feb-17 07:25N 39°41' W 075°31'8 0.7
2018-Feb-16 18:52N 39°48' W 075°25'0 0.0
2018-Feb-16 18:28N 39°48' W 075°25'0 0.0
2018-Feb-16 17:58N 39°48' W 075°25'0 0.0
2018-Feb-16 17:28N 39°48' W 075°25'0 0.0
2018-Feb-16 16:58N 39°48' W 075°25'0 0.0
2018-Feb-16 16:25N 39°48' W 075°25'0 0.0
2018-Feb-16 15:58N 39°48' W 075°25'0 0.0
2018-Feb-16 15:25N 39°48' W 075°25'0 0.0
2018-Feb-16 14:58N 39°48' W 075°25'0 0.0
2018-Feb-16 14:28N 39°48' W 075°25'0 0.1
2018-Feb-16 13:58N 39°48' W 075°25'0 0.0
2018-Feb-16 13:28N 39°48' W 075°25'0 0.0
2018-Feb-16 12:58N 39°48' W 075°25'0 0.0
2018-Feb-16 12:28N 39°48' W 075°25'0 0.0
2018-Feb-16 11:55N 39°48' W 075°25'0 0.0
2018-Feb-16 11:28N 39°48' W 075°25'0 0.0
2018-Feb-16 10:58N 39°48' W 075°25'0 0.0
2018-Feb-16 10:28N 39°48' W 075°25'0 0.0
2018-Feb-16 09:52N 39°48' W 075°25'0 0.0
2018-Feb-16 09:28N 39°48' W 075°25'0 0.0
2018-Feb-16 08:58N 39°48' W 075°25'0 0.0
2018-Feb-16 08:28N 39°48' W 075°25'0 0.0
2018-Feb-16 07:55N 39°48' W 075°25'0 0.0
2018-Feb-16 07:28N 39°48' W 075°25'0 0.0
2018-Feb-16 06:58N 39°48' W 075°25'0 0.0
2018-Feb-16 06:25N 39°48' W 075°25'0 0.0
2018-Feb-16 05:58N 39°48' W 075°25'0 0.0
2018-Feb-16 05:28N 39°48' W 075°25'0 0.0
2018-Feb-16 04:52N 39°48' W 075°25'0 0.0
2018-Feb-16 04:28N 39°48' W 075°25'0 0.0
2018-Feb-16 03:58N 39°48' W 075°25'0 0.0
2018-Feb-16 03:25N 39°48' W 075°25'0 0.0
2018-Feb-16 02:55N 39°48' W 075°25'0 0.0
2018-Feb-16 02:22N 39°48' W 075°25'0 0.0
2018-Feb-16 01:58N 39°48' W 075°25'0 0.0
2018-Feb-16 01:28N 39°48' W 075°25'0 0.0
2018-Feb-15 23:04N 39°48' W 075°25'0 0.1
2018-Feb-15 22:58N 39°48' W 075°25'1 2.1
2018-Feb-15 22:30N 39°48' W 075°26'0 1.0
2018-Feb-15 22:00N 39°47' W 075°27'0 0.4
2018-Feb-15 21:29N 39°47' W 075°27'0 0.2
2018-Feb-15 20:59N 39°47' W 075°27'0 0.0
2018-Feb-15 20:29N 39°47' W 075°27'0 0.4
2018-Feb-15 19:59N 39°47' W 075°27'0 0.0
2018-Feb-15 19:29N 39°47' W 075°27'0 0.1
2018-Feb-15 18:56N 39°47' W 075°27'0 0.1
2018-Feb-15 18:29N 39°47' W 075°27'0 0.5
2018-Feb-15 17:59N 39°47' W 075°27'0 0.0
2018-Feb-15 17:29N 39°47' W 075°27'0 0.1
2018-Feb-15 16:59N 39°47' W 075°27'0 0.0
2018-Feb-15 16:05N 39°47' W 075°27'0 0.0
2018-Feb-15 15:14N 39°47' W 075°27'0 0.0
2018-Feb-15 14:59N 39°47' W 075°27'1 2.1
2018-Feb-15 14:20N 39°48' W 075°25'1 3.3
2018-Feb-15 14:00N 39°49' W 075°24'1 2.6
2018-Feb-15 13:28N 39°50' W 075°23'0 0.0
2018-Feb-15 12:58N 39°50' W 075°23'0 0.0
2018-Feb-15 12:28N 39°50' W 075°23'0 0.0
2018-Feb-15 11:58N 39°50' W 075°23'0 0.0
2018-Feb-15 11:28N 39°50' W 075°23'0 0.0
2018-Feb-15 10:58N 39°50' W 075°23'0 0.0
2018-Feb-15 10:28N 39°50' W 075°23'0 0.0
2018-Feb-15 09:58N 39°50' W 075°23'0 0.0
2018-Feb-15 09:28N 39°50' W 075°23'0 0.0
2018-Feb-15 08:58N 39°50' W 075°23'0 0.0
2018-Feb-15 08:28N 39°50' W 075°23'0 0.0
2018-Feb-15 07:58N 39°50' W 075°23'0 0.0
2018-Feb-15 07:28N 39°50' W 075°23'0 0.0
2018-Feb-15 06:58N 39°50' W 075°23'0 0.0
2018-Feb-15 06:25N 39°50' W 075°23'0 0.0
2018-Feb-15 05:58N 39°50' W 075°23'0 0.0
2018-Feb-15 05:28N 39°50' W 075°23'0 0.0
2018-Feb-15 04:58N 39°50' W 075°23'0 0.0
2018-Feb-15 04:28N 39°50' W 075°23'0 0.0
2018-Feb-15 03:58N 39°50' W 075°23'0 0.0
2018-Feb-15 03:28N 39°50' W 075°23'0 0.0
2018-Feb-15 02:58N 39°50' W 075°23'0 0.0
2018-Feb-15 02:28N 39°50' W 075°23'0 0.0
2018-Feb-15 01:58N 39°50' W 075°23'0 0.0
2018-Feb-15 01:28N 39°50' W 075°23'0 0.0
2018-Feb-15 00:58N 39°50' W 075°23'0 0.0
2018-Feb-15 00:28N 39°50' W 075°23'0 0.0
2018-Feb-14 23:55N 39°50' W 075°23'0 0.0
2018-Feb-14 23:25N 39°50' W 075°23'0 0.0
2018-Feb-14 22:58N 39°50' W 075°23'0 0.0
2018-Feb-14 22:28N 39°50' W 075°23'0 0.0
2018-Feb-14 21:58N 39°50' W 075°23'0 0.0
2018-Feb-14 21:28N 39°50' W 075°23'0 0.0
2018-Feb-14 20:58N 39°50' W 075°23'0 0.0
2018-Feb-14 20:28N 39°50' W 075°23'0 0.0
2018-Feb-14 19:58N 39°50' W 075°23'0 0.0
2018-Feb-14 19:28N 39°50' W 075°23'0 0.0
2018-Feb-14 18:58N 39°50' W 075°23'0 0.0
2018-Feb-14 18:28N 39°50' W 075°23'0 0.0
2018-Feb-14 17:58N 39°50' W 075°23'0 0.0
2018-Feb-14 17:25N 39°50' W 075°23'0 0.0
2018-Feb-14 16:58N 39°50' W 075°23'0 0.0
2018-Feb-14 16:28N 39°50' W 075°23'0 0.0
2018-Feb-14 15:58N 39°50' W 075°23'0 0.0
2018-Feb-14 15:28N 39°50' W 075°23'0 0.0
2018-Feb-14 14:58N 39°50' W 075°23'0 0.0
2018-Feb-14 14:28N 39°50' W 075°23'0 0.0
2018-Feb-14 13:58N 39°50' W 075°23'0 0.0
2018-Feb-14 13:28N 39°50' W 075°23'0 0.0
2018-Feb-14 12:58N 39°50' W 075°23'1 1.6
2018-Feb-14 12:30N 39°49' W 075°23'0 0.2
2018-Feb-14 11:59N 39°49' W 075°24'0 0.5
2018-Feb-14 11:26N 39°49' W 075°23'1 2.0
2018-Feb-14 11:00N 39°49' W 075°24'2 3.9
2018-Feb-14 10:31N 39°48' W 075°26'2 4.8
2018-Feb-14 10:00N 39°46' W 075°28'3 5.5
2018-Feb-14 09:30N 39°43' W 075°30'3 5.4
2018-Feb-14 09:00N 39°41' W 075°31'3 6.6
2018-Feb-14 08:30N 39°38' W 075°34'3 6.8
2018-Feb-14 08:00N 39°35' W 075°33'4 7.1
2018-Feb-14 07:30N 39°31' W 075°33'4 7.2
2018-Feb-14 07:00N 39°28' W 075°33'4 7.5
2018-Feb-14 06:30N 39°25' W 075°31'3 6.5
2018-Feb-14 06:00N 39°22' W 075°28'4 8.0
2018-Feb-14 05:31N 39°19' W 075°24'4 8.0
2018-Feb-14 05:01N 39°16' W 075°21'0 0.0
2018-Feb-13 22:17N 39°16' W 075°21'2 6.0
2018-Feb-13 21:59N 39°18' W 075°22'3 6.7
2018-Feb-13 21:29N 39°20' W 075°25'4 7.9
2018-Feb-13 21:00N 39°23' W 075°29'4 8.7
2018-Feb-13 20:30N 39°26' W 075°32'4 7.5
2018-Feb-13 20:00N 39°30' W 075°34'4 8.8
2018-Feb-13 19:30N 39°34' W 075°33'4 8.2
2018-Feb-13 19:01N 39°38' W 075°34'4 8.3
2018-Feb-13 18:30N 39°41' W 075°31'4 7.8
2018-Feb-13 18:00N 39°45' W 075°29'3 7.1
2018-Feb-13 17:30N 39°48' W 075°26'3 5.2
2018-Feb-13 17:00N 39°49' W 075°23'0 0.7
2018-Feb-13 16:30N 39°49' W 075°23'0 0.5
2018-Feb-13 15:55N 39°50' W 075°23'0 0.0
2018-Feb-13 15:25N 39°50' W 075°23'0 0.0
2018-Feb-13 14:58N 39°50' W 075°23'0 0.0
2018-Feb-13 14:28N 39°50' W 075°23'0 0.0
2018-Feb-13 13:58N 39°50' W 075°23'0 0.0
2018-Feb-13 13:28N 39°50' W 075°23'0 0.0
2018-Feb-13 12:58N 39°50' W 075°23'0 0.0
2018-Feb-13 12:25N 39°50' W 075°23'0 0.0
2018-Feb-13 11:58N 39°50' W 075°23'0 0.0
2018-Feb-13 11:28N 39°50' W 075°23'0 0.0
2018-Feb-13 10:58N 39°50' W 075°23'0 0.0
2018-Feb-13 10:28N 39°50' W 075°23'0 0.0
2018-Feb-13 09:58N 39°50' W 075°23'0 0.0
2018-Feb-13 09:28N 39°49' W 075°23'0 0.0
2018-Feb-13 08:58N 39°50' W 075°23'0 0.0
2018-Feb-13 08:28N 39°50' W 075°23'0 0.0
2018-Feb-13 07:58N 39°49' W 075°23'0 0.0
2018-Feb-13 07:28N 39°49' W 075°23'0 0.0
2018-Feb-13 06:58N 39°49' W 075°23'0 0.0
2018-Feb-13 06:28N 39°49' W 075°23'0 0.0
2018-Feb-13 05:58N 39°49' W 075°23'0 0.0
2018-Feb-13 05:25N 39°49' W 075°23'0 0.1
2018-Feb-13 04:55N 39°49' W 075°23'0 0.1
2018-Feb-13 04:28N 39°49' W 075°23'0 0.1
2018-Feb-13 03:58N 39°49' W 075°23'0 0.0
2018-Feb-13 03:28N 39°49' W 075°23'0 0.2
2018-Feb-13 02:58N 39°49' W 075°23'0 0.0
2018-Feb-13 02:28N 39°49' W 075°23'0 0.1
2018-Feb-13 01:58N 39°49' W 075°23'1 2.8
2018-Feb-13 01:30N 39°49' W 075°24'5 9.7
2018-Feb-13 01:00N 39°46' W 075°29'612.0
2018-Feb-13 00:30N 39°40' W 075°32'510.5
2018-Feb-13 00:00N 39°35' W 075°33'611.5
2018-Feb-12 23:30N 39°29' W 075°34'5 9.6
2018-Feb-12 23:00N 39°25' W 075°31'511.0
2018-Feb-12 22:30N 39°21' W 075°26'511.0
2018-Feb-12 22:00N 39°17' W 075°21'3 0.7
2018-Feb-12 17:35N 39°14' W 075°19'2 9.0
2018-Feb-12 17:18N 39°16' W 075°21'3 9.1
2018-Feb-12 17:00N 39°18' W 075°23'4 8.8
2018-Feb-12 16:30N 39°22' W 075°27'4 8.4
2018-Feb-12 16:00N 39°25' W 075°31'4 7.6
2018-Feb-12 15:30N 39°28' W 075°34'3 6.8
2018-Feb-12 15:00N 39°31' W 075°33'3 6.1
2018-Feb-12 14:30N 39°34' W 075°33'3 5.8
2018-Feb-12 14:00N 39°37' W 075°35'2 4.8
2018-Feb-12 13:30N 39°39' W 075°33'2 4.7
2018-Feb-12 13:00N 39°41' W 075°31'  

Dump ship's entire track history